Map

Track Data

SID SEASON NUMBER BASIN SUBBASIN NAME ISO_TIME NATURE LAT LON WMO_WIND WMO_PRES WMO_AGENCY TRACK_TYPE DIST2LAND LANDFALL IFLAG USA_AGENCY USA_ATCF_ID USA_LAT USA_LON USA_RECORD USA_STATUS USA_WIND USA_PRES USA_SSHS USA_R34_NE USA_R34_SE USA_R34_SW USA_R34_NW USA_R50_NE USA_R50_SE USA_R50_SW USA_R50_NW USA_R64_NE USA_R64_SE USA_R64_SW USA_R64_NW USA_POCI USA_ROCI USA_RMW USA_EYE TOKYO_LAT TOKYO_LON TOKYO_GRADE TOKYO_WIND TOKYO_PRES TOKYO_R50_DIR TOKYO_R50_LONG TOKYO_R50_SHORT TOKYO_R30_DIR TOKYO_R30_LONG TOKYO_R30_SHORT TOKYO_LAND CMA_LAT CMA_LON CMA_CAT CMA_WIND CMA_PRES HKO_LAT HKO_LON HKO_CAT HKO_WIND HKO_PRES NEWDELHI_LAT NEWDELHI_LON NEWDELHI_GRADE NEWDELHI_WIND NEWDELHI_PRES NEWDELHI_CI NEWDELHI_DP NEWDELHI_POCI REUNION_LAT REUNION_LON REUNION_TYPE REUNION_WIND REUNION_PRES REUNION_TNUM REUNION_CI REUNION_RMW REUNION_R34_NE REUNION_R34_SE REUNION_R34_SW REUNION_R34_NW REUNION_R50_NE REUNION_R50_SE REUNION_R50_SW REUNION_R50_NW REUNION_R64_NE REUNION_R64_SE REUNION_R64_SW REUNION_R64_NW BOM_LAT BOM_LON BOM_TYPE BOM_WIND BOM_PRES BOM_TNUM BOM_CI BOM_RMW BOM_R34_NE BOM_R34_SE BOM_R34_SW BOM_R34_NW BOM_R50_NE BOM_R50_SE BOM_R50_SW BOM_R50_NW BOM_R64_NE BOM_R64_SE BOM_R64_SW BOM_R64_NW BOM_ROCI BOM_POCI BOM_EYE BOM_POS_METHOD BOM_PRES_METHOD NADI_LAT NADI_LON NADI_CAT NADI_WIND NADI_PRES WELLINGTON_LAT WELLINGTON_LON WELLINGTON_WIND WELLINGTON_PRES DS824_LAT DS824_LON DS824_STAGE DS824_WIND DS824_PRES TD9636_LAT TD9636_LON TD9636_STAGE TD9636_WIND TD9636_PRES TD9635_LAT TD9635_LON TD9635_WIND TD9635_PRES TD9635_ROCI NEUMANN_LAT NEUMANN_LON NEUMANN_CLASS NEUMANN_WIND NEUMANN_PRES MLC_LAT MLC_LON MLC_CLASS MLC_WIND MLC_PRES USA_GUST BOM_GUST BOM_GUST_PER REUNION_GUST REUNION_GUST_PER USA_SEAHGT USA_SEARAD_NE USA_SEARAD_SE USA_SEARAD_SW USA_SEARAD_NW STORM_SPEED STORM_DIR
1975139S12106 1975 40 SI WA DENISE 1975-05-18 18:00:00 TS -12.0000 106.200 25 1003 bom main 512 426 ______O__O____ -1 -12.0000 106.200 20 25 1003 2.00000 -12.0000 106.200 TC 25 1003 20 50
1975139S12106 1975 40 SI WA DENISE 1975-05-18 21:00:00 TS -11.3619 106.985 main 423 372 ______P__P____ -1 -11.3506 107.010 20 25 1004 -11.3731 106.961 TC 20 1004 16 50
1975139S12106 1975 40 SI WA DENISE 1975-05-19 00:00:00 TS -11.0000 107.400 25 1006 bom main 372 372 ______O__O____ -1 -11.0000 107.400 20 25 1006 2.00000 2.00000 -11.0000 107.400 TC 15 1006 4 43
1975139S12106 1975 40 SI WA DENISE 1975-05-19 03:00:00 TS -11.0724 107.260 25 1005 bom main 384 384 ______O__P____ -1 -11.1000 107.200 20 25 1005 2.00000 -11.0449 107.320 TC 20 1004 5 232
1975139S12106 1975 40 SI WA DENISE 1975-05-19 06:00:00 TS -11.2889 107.022 25 1003 bom main 412 412 ______O__O__O_ -1 -11.3000 107.000 20 25 1003 2.00000 -11.3000 107.000 TC 25 1003 -11.2000 107.200 TC 20 1004 5 226
1975139S12106 1975 40 SI WA DENISE 1975-05-19 07:00:00 TS -11.3194 107.000 25 1003 bom main 412 412 ______O__P__P_ -1 -11.3000 107.000 20 25 1003 2.00000 -11.3636 106.933 TC 25 1003 -11.2699 107.133 TC 20 1003 5 221
1975139S12106 1975 40 SI WA DENISE 1975-05-19 09:00:00 TS -11.4748 106.855 25 1002 bom main 436 436 ______O__P__P_ -1 -11.5000 106.800 20 25 1002 2.00000 -11.5000 106.800 TC 25 1003 -11.4075 107.000 TC 22 1003 6 223
1975139S12106 1975 40 SI WA DENISE 1975-05-19 12:00:00 TS -11.6667 106.667 25 1003 bom main 464 464 ______O__O__O_ -1 -11.7000 106.600 20 25 1003 2.00000 -11.7000 106.600 TC 25 1003 -11.6000 106.800 TC 25 1003 5 229
1975139S12106 1975 40 SI WA DENISE 1975-05-19 15:00:00 TS -11.8100 106.467 25 1004 bom main 480 480 ______O__P__P_ -1 -11.8000 106.400 20 25 1004 2.00000 -11.8650 106.400 TC 25 1003 -11.7650 106.600 TC 25 1003 5 232
1975139S12106 1975 40 SI WA DENISE 1975-05-19 18:00:00 TS -11.9667 106.267 25 1003 bom main 508 508 ______O__O__O_ -1 -12.0000 106.200 20 25 1003 2.50000 -12.0000 106.200 TC 25 1003 -11.9000 106.400 TC 25 1003 5 233
1975139S12106 1975 40 SI WA DENISE 1975-05-19 19:00:00 TS -11.9927 106.222 25 1003 bom main 512 512 ______O__P__P_ -1 -12.0000 106.200 20 25 1003 2.50000 -12.0390 106.133 TC 25 1002 -11.9390 106.333 TC 25 1002 4 242
1975139S12106 1975 40 SI WA DENISE 1975-05-19 21:00:00 TS -12.0717 106.067 25 1003 bom main 526 526 ______O__P__P_ -1 -12.1000 106.000 20 25 1003 2.50000 -12.1075 106.000 TC 25 1002 -12.0075 106.200 TC 25 1002 5 243
1975139S12106 1975 40 SI WA DENISE 1975-05-20 00:00:00 TS -12.1667 105.867 30 1002 bom main 540 540 ______O__O__O_ -1 -12.2000 105.800 20 30 1002 2.50000 -12.2000 105.800 TC 25 1002 -12.1000 106.000 TC 25 1002 4 243
1975139S12106 1975 40 SI WA DENISE 1975-05-20 03:00:00 TS -12.2692 105.667 30 1001 bom main 554 554 ______O__P__P_ -1 -12.3000 105.600 20 30 1001 2.50000 2.50000 -12.3075 105.600 TC 27 1000 -12.2000 105.800 TC 27 1001 4 243
1975139S12106 1975 40 SI WA DENISE 1975-05-20 06:00:00 TS -12.3667 105.467 30 999 bom main 568 568 ______O__O__O_ -1 -12.4000 105.400 20 30 999 2.50000 -12.4000 105.400 TC 30 999 -12.3000 105.600 TC 30 1000 4 244
1975139S12106 1975 40 SI WA DENISE 1975-05-20 07:00:00 TS -12.3861 105.422 30 999 bom main 570 570 ______O__P__P_ -1 -12.4000 105.400 20 30 999 2.50000 -12.4224 105.333 TC 30 998 -12.3359 105.533 TC 30 999 4 246
1975139S12106 1975 40 SI WA DENISE 1975-05-20 09:00:00 TS -12.4550 105.267 30 998 bom main 583 583 ______O__P__P_ -1 -12.5000 105.200 20 30 998 2.50000 -12.4575 105.200 TC 32 998 -12.4075 105.400 TC 32 999 4 252
1975139S12106 1975 40 SI WA DENISE 1975-05-20 12:00:00 TS -12.5000 105.067 30 998 bom main 588 588 ______O__O__O_ -1 -12.5000 105.000 20 30 998 2.50000 -12.5000 105.000 TC 35 998 -12.5000 105.200 TC 35 998 4 253
1975139S12106 1975 40 SI WA DENISE 1975-05-20 15:00:00 TS -12.5741 104.874 30 998 bom main 605 605 ______O__P__P_ -1 -12.6000 104.800 20 30 998 2.50000 -12.5574 104.815 TC 35 998 -12.5650 105.007 TC 35 998 4 256
1975139S12106 1975 40 SI WA DENISE 1975-05-20 18:00:00 TS -12.6000 104.667 35 998 bom main 611 611 ______O__O__O_ -1 -12.6000 104.600 30 35 998 3.00000 -12.6000 104.600 TC 35 998 -12.6000 104.800 TC 35 998 4 263
1975139S12106 1975 40 SI WA DENISE 1975-05-20 19:00:00 TS -12.6038 104.615 35 998 bom main 614 614 ______O__P__P_ -1 -12.6000 104.600 30 35 998 3.00000 -12.6057 104.517 TC 35 997 -12.6057 104.728 TC 35 997 5 269
1975139S12106 1975 40 SI WA DENISE 1975-05-20 21:00:00 TS -12.6050 104.401 35 997 bom main 622 622 ______O__P__P_ -1 -12.6000 104.300 30 35 997 3.00000 -12.6075 104.330 TC 35 997 -12.6074 104.572 TC 35 997 6 270
1975139S12106 1975 40 SI WA DENISE 1975-05-21 00:00:00 TS -12.6000 104.100 40 996 bom main 634 634 ______O__O__O_ -1 -12.6000 104.000 30 40 996 3.00000 3.00000 -12.6000 104.000 TC 35 996 -12.6000 104.300 TC 35 996 7 270
1975139S12106 1975 40 SI WA DENISE 1975-05-21 03:00:00 TS -12.6050 103.729 40 995 bom main 653 653 ______O__P__P_ -1 -12.6000 103.600 30 40 995 3.00000 -12.6075 103.615 TC 37 994 -12.6075 103.973 TC 37 995 7 270
1975139S12106 1975 40 SI WA DENISE 1975-05-21 06:00:00 TS -12.6000 103.333 40 993 bom main 674 674 ______O__O__O_ -1 -12.6000 103.200 30 40 993 3.00000 -12.6000 103.200 TC 40 993 -12.6000 103.600 TC 40 994 8 275
1975139S12106 1975 40 SI WA DENISE 1975-05-21 09:00:00 TS -12.5383 102.936 40 993 bom main 686 686 ______O__P__P_ -1 -12.5000 102.800 30 40 993 3.00000 -12.5574 102.800 TC 40 993 -12.5575 103.207 TC 40 993 8 277
1975139S12106 1975 40 SI WA DENISE 1975-05-21 12:00:00 TS -12.5000 102.533 40 993 bom main 703 703 ______O__O__O_ -1 -12.5000 102.400 30 40 993 3.00000 -12.5000 102.400 TC 40 993 -12.5000 102.800 TC 40 993 8 278
1975139S12106 1975 40 SI WA DENISE 1975-05-21 15:00:00 TS -12.4333 102.133 45 992 bom main 713 713 ______O__P__P_ -1 -12.4000 102.000 30 45 992 3.00000 4 -12.4499 102.000 TC 42 992 -12.4499 102.400 TC 42 992 8 277
1975139S12106 1975 40 SI WA DENISE 1975-05-21 18:00:00 TS -12.4000 101.733 45 992 bom main 735 735 ______O__O__O_ -1 -12.4000 101.600 30 45 992 3.00000 -12.4000 101.600 TC 45 992 -12.4000 102.000 TC 45 992 8 278
1975139S12106 1975 40 SI WA DENISE 1975-05-21 21:00:00 TS -12.3232 101.343 45 992 bom main 750 750 ______O__P__P_ -1 -12.3000 101.200 30 45 992 3.00000 -12.3349 101.215 TC 45 992 -12.3349 101.615 TC 45 992 8 277
1975139S12106 1975 40 SI WA DENISE 1975-05-22 00:00:00 TS -12.3000 100.933 45 992 bom main 775 775 ______O__O__O_ -1 -12.3000 100.800 30 45 992 3.00000 -12.3000 100.800 TC 45 992 -12.3000 101.200 TC 45 992 9 270
1975139S12106 1975 40 SI WA DENISE 1975-05-22 03:00:00 TS -12.3283 100.443 45 992 bom main 810 810 ______O__P__P_ -1 -12.3000 100.300 30 45 992 3.00000 3.00000 -12.3425 100.315 TC 45 992 -12.3425 100.715 TC 45 992 10 264
1975139S12106 1975 40 SI WA DENISE 1975-05-22 06:00:00 TS -12.4000 99.9333 45 992 bom main 855 855 ______O__O__O_ -1 -12.4000 99.8000 30 45 992 3.00000 -12.4000 99.8000 TC 45 992 -12.4000 100.200 TC 45 992 8 265
1975139S12106 1975 40 SI WA DENISE 1975-05-22 09:00:00 TS -12.3999 99.6074 45 992 bom main 877 877 ______O__P__P_ -1 -12.4000 99.8000 30 45 992 3.00000 -12.3998 99.3149 TC 42 993 -12.3999 99.7074 TC 42 992 10 270
1975139S12106 1975 40 SI WA DENISE 1975-05-22 12:00:00 TS -12.4000 98.9333 40 994 bom main 933 933 ______O__O__O_ -1 -12.4000 98.8000 30 40 994 3.00000 -12.4000 98.8000 TC 40 994 -12.4000 99.2000 TC 40 993 12 268
1975139S12106 1975 40 SI WA DENISE 1975-05-22 15:00:00 TS -12.4333 98.3526 35 996 bom main 974 974 ______O__P__P_ -1 -12.4000 98.2000 30 35 996 3.00000 -12.4501 98.2001 TC 40 994 -12.4499 98.6576 TC 40 993 11 265
1975139S12106 1975 40 SI WA DENISE 1975-05-22 18:00:00 TS -12.5000 97.7667 35 995 bom main 1032 1032 ______O__O__O_ -1 -12.5000 97.6000 30 35 995 3.00000 -12.5000 97.6000 TC 40 995 -12.5000 98.1000 TC 40 994 11 266
1975139S12106 1975 40 SI WA DENISE 1975-05-22 21:00:00 TS -12.5050 97.2300 35 995 bom main 1085 1085 ______O__P__P_ -1 -12.5000 97.1000 30 35 995 3.00000 -12.5074 97.0625 TC 37 995 -12.5075 97.5275 TC 40 994 10 270
1975139S12106 1975 40 SI WA DENISE 1975-05-23 00:00:00 TS -12.5000 96.7333 35 996 bom main 1126 1126 ______O__O__O_ -1 -12.5000 96.6000 30 35 996 2.50000 3.00000 -12.5000 96.6000 TC 35 996 -12.5000 97.0000 TC 40 995 9 271
1975139S12106 1975 40 SI WA DENISE 1975-05-23 03:00:00 TS -12.4949 96.3275 35 996 bom main 1153 1153 ______O__P__P_ -1 -12.5000 96.2000 30 35 996 3.00000 -12.4924 96.2200 TC 37 995 -12.4924 96.5625 TC 37 995 7 270
1975139S12106 1975 40 SI WA DENISE 1975-05-23 06:00:00 TS -12.5000 96.0000 35 995 bom main 1174 1174 ______O__O__O_ -1 -12.5000 95.9000 30 35 995 3.00000 -12.5000 95.9000 TC 40 995 -12.5000 96.2000 TC 35 996 6 263
1975139S12106 1975 40 SI WA DENISE 1975-05-23 09:00:00 TS -12.5666 95.6925 35 995 bom main 1204 1204 ______O__P__P_ -1 -12.6000 95.6000 30 35 995 3.00000 -12.5499 95.5925 TC 37 996 -12.5499 95.8850 TC 35 996 6 260
1975139S12106 1975 40 SI WA DENISE 1975-05-23 12:00:00 TS -12.6000 95.4000 30 997 bom main 1226 1226 ______O__O__O_ -1 -12.6000 95.3000 20 30 997 2.50000 -12.6000 95.3000 TC 35 997 -12.6000 95.6000 TC 35 996 6 267
1975139S12106 1975 40 SI WA DENISE 1975-05-23 15:00:00 TS -12.6000 95.1050 30 997 bom main 1247 1247 ______O__P__P_ -1 -12.6000 95.0000 20 30 997 2.50000 -12.5999 95.0074 TC 35 997 -12.5999 95.3074 TC 35 996 6 270
1975139S12106 1975 40 SI WA DENISE 1975-05-23 18:00:00 TS -12.6000 94.8000 30 997 bom main 1268 1268 ______O__O__O_ -1 -12.6000 94.7000 20 30 997 2.50000 -12.6000 94.7000 TC 35 997 -12.6000 95.0000 TC 35 997 6 264
1975139S12106 1975 40 SI WA DENISE 1975-05-23 21:00:00 TS -12.6616 94.4742 30 998 bom main 1298 1298 ______O__P__P_ -1 -12.7000 94.4000 20 30 998 2.50000 -12.6425 94.3650 TC 32 998 -12.6425 94.6575 TC 35 997 7 262
1975139S12106 1975 40 SI WA DENISE 1975-05-24 00:00:00 TS -12.7000 94.1000 30 999 bom main 1327 1327 ______O__O__O_ -1 -12.7000 94.0000 20 30 999 2.50000 -12.7000 94.0000 TC 30 999 -12.7000 94.3000 TC 35 998 7 262
1975139S12106 1975 40 SI WA DENISE 1975-05-24 03:00:00 TS -12.7641 93.7216 30 999 bom main 1366 1366 ______O__P__P_ -1 -12.8000 93.6000 20 30 999 2.00000 2.50000 -12.7425 93.6075 TC 30 999 -12.7499 93.9575 TC 32 998 8 262
1975139S12106 1975 40 SI WA DENISE 1975-05-24 06:00:00 TS -12.8000 93.3333 25 999 bom main 1388 1388 ______O__O__O_ -1 -12.8000 93.2000 20 25 999 2.00000 -12.8000 93.2000 TC 30 999 -12.8000 93.6000 TC 30 999 8 262
1975139S12106 1975 40 SI WA DENISE 1975-05-24 09:00:00 TS -12.8733 92.9458 25 999 bom main 1418 1418 ______O__P__P_ -1 -12.9000 92.8000 20 25 999 2.00000 -12.8849 92.8149 TC 30 999 -12.8349 93.2224 TC 30 999 8 258
1975139S12106 1975 40 SI WA DENISE 1975-05-24 12:00:00 TS -12.9667 92.5333 25 1000 bom main 1449 1449 ______O__O__O_ -1 -13.0000 92.4000 20 25 1000 2.00000 -13.0000 92.4000 TC 30 1000 -12.9000 92.8000 TC 30 999 9 256
1975139S12106 1975 40 SI WA DENISE 1975-05-24 15:00:00 TS -13.0875 92.0433 25 1001 bom main 1486 1486 ______O__P__P_ -1 -13.1000 91.9000 20 25 1001 2.00000 -13.1350 91.9150 TC 30 1000 -13.0275 92.3150 TC 30 999 10 253
1975139S12106 1975 40 SI WA DENISE 1975-05-24 18:00:00 TS -13.2667 91.5333 25 1001 bom main 1533 1533 ______O__O__O_ -1 -13.3000 91.4000 20 25 1001 2.00000 -13.3000 91.4000 TC 30 1001 -13.2000 91.8000 TC 30 1000 11 249
1975139S12106 1975 40 SI WA DENISE 1975-05-24 21:00:00 TS -13.4626 91.0301 25 1002 bom main 1582 1582 ______O__P__P_ -1 -13.5000 90.9000 20 25 1002 2.00000 -13.4927 90.8952 TC 27 1002 -13.3951 91.2952 TC 27 1001 11 248
1975139S12106 1975 40 SI WA DENISE 1975-05-25 00:00:00 TS -13.6667 90.5333 25 1003 bom main 1631 ______O__O__O_ -1 -13.7000 90.4000 20 25 1003 1.50000 -13.7000 90.4000 TC 25 1003 -13.6000 90.8000 TC 25 1002 11 247

About IBTrACS Database

This database is a web-friendly format of International Best Track Archive for Climate Stewardship (IBTrACS), a global best track data archive curated by NOAA dating back to 1842.

Updated: 2021-12-01